Pittsford, Michigan
Current Conditions -  °F | °C
As of 8:34 AM on Sunday 23 Nov 2014 (Local Time) from KJYM Reporting Station
Haze Haze  
Wind Chill: 41°   Ceiling: 4600
Heat Index: 45°   Visibility: 4mi
Dew Point: 45°   Wind: 7mph
Humidity: 100%   Direction: 160°SSE
Pressure: 29.89"   Gusts: NA
Location:  41.86°N, 84.48°W
Report Text: KJYM 231334Z AUTO 16006KT 4SM BR OVC046 07/07 A2989 RMK AO2 T00720072
Loading
Personal Weather Stations






























Interactive Weather Map New forecast layout! Learn more

10-Day Weather Forecast

Advertisements
Track Severe Weather on mobile